Nearby METAR Reports

 

KMGY - Dayton, Ohio, USA
Distance from station: N 3mi, 5km
Updated: Mon, Aug-21-2017 8:53am EDT
Clear
Clear
 Wind from S
Wind: S 5 mph , 7 km/h
Temperature: 75°F , 24°C
Dew Point: 70°F , 21°C
Humidity: 83%
Barometer: 30.16 inHg , 1021.3 hPa
Clouds: Clear
Visibility: 10 miles , 16 km
2017/08/21 12:53 KMGY 211253Z AUTO 19004KT 10SM CLR 24/21 A3016 RMK AO2 SLP206 T02440206
KMWO - Middletown/Hook, Ohio, USA
Distance from station: W 9mi, 14km
Updated: Mon, Aug-21-2017 9:35am EDT
Clear
Clear
 Wind from calm
Wind: Calm
Temperature: 79°F , 26°C
Dew Point: 72°F , 22°C
Humidity: 79%
Barometer: 30.17 inHg , 1021.7 hPa
Clouds: Clear
Visibility: 10 miles , 16 km
2017/08/21 13:35 KMWO 211335Z AUTO 00000KT 10SM CLR 26/22 A3017 RMK AO2 T02560216
 
KHAO - Hamilton, Ohio, USA
Distance from station: SW 20mi, 32km
Updated: Mon, Aug-21-2017 8:53am EDT
Clear
Clear
 Wind from calm
Wind: Calm
Temperature: 79°F , 26°C
Dew Point: 70°F , 21°C
Humidity: 74%
Barometer: 30.16 inHg , 1021.3 hPa
Clouds: Clear
Visibility: 10 miles , 16 km
2017/08/21 12:53 KHAO 211253Z AUTO 00000KT 10SM CLR 26/21 A3016 RMK AO2 SLP208 T02560211
KFFO - Wright Paterson, Ohio, USA
Distance from station: NNE 21mi, 34km
Updated: Mon, Aug-21-2017 8:58am EDT
Clear
Clear
 Wind from SW
Wind: SW 6 mph , 9 km/h
Temperature: 77°F , 25°C
Dew Point: 72°F , 22°C
Humidity: 83%
Barometer: 30.16 inHg , 1021.3 hPa
Clouds: Clear
Visibility: 10 miles , 16 km
2017/08/21 12:58 KFFO 211258Z AUTO 23005KT 10SM CLR 25/22 A3016 RMK AO2 SLP210 T02530215
 
KDAY - Dayton, Ohio, USA
Distance from station: N 24mi, 39km
Updated: Mon, Aug-21-2017 8:56am EDT
Overcast
Overcast
 Wind from WSW
Wind: WSW 6 mph , 9 km/h
Temperature: 75°F , 24°C
Dew Point: 68°F , 20°C
Humidity: 78%
Barometer: 30.17 inHg , 1021.7 hPa
Clouds: Overcast
Visibility: 10 miles , 16 km
Cloud details: Partly cloudy 17000 ft
Overcast 22000 ft
2017/08/21 12:56 KDAY 211256Z 24005KT 10SM SCT170 OVC220 24/20 A3017 RMK AO2 SLP209 T02440200
KILN - Wilmington, Ohio, USA
Distance from station: ESE 25mi, 39km
Updated: Mon, Aug-21-2017 8:54am EDT
Clear
Clear
 Wind from SW
Wind: SW 5 mph , 7 km/h
Temperature: 77°F , 25°C
Dew Point: 72°F , 22°C
Humidity: 83%
Barometer: 30.18 inHg , 1022 hPa
Clouds: Clear
Visibility: 10 miles , 16 km
2017/08/21 12:54 KILN 211254Z AUTO 22004KT 10SM CLR 25/22 A3018 RMK AO2 SLP207 T02500217
 
KSGH - Springfield Muni, Ohio, USA
Distance from station: NE 29mi, 46km
Updated: Mon, Aug-21-2017 8:56am EDT
Clear
Clear
 Wind from WSW
Wind: WSW 6 mph , 9 km/h
Temperature: 75°F , 24°C
Dew Point: 70°F , 21°C
Humidity: 83%
Barometer: 30.17 inHg , 1021.7 hPa
Clouds: Clear
Visibility: 10 miles , 16 km
2017/08/21 12:56 KSGH 211256Z AUTO 24005KT 10SM CLR 24/21 A3017 RMK AO2 SLP211 T02390211
KI69 - Batavia, Ohio, USA
Distance from station: S 32mi, 52km
Updated: Mon, Aug-21-2017 9:36am EDT
Clear
Clear
 Wind from WSW
Wind: WSW 3 mph , 6 km/h
Temperature: 79°F , 26°C
Dew Point: 68°F , 20°C
Humidity: 70%
Barometer: 30.19 inHg , 1022.4 hPa
Clouds: Clear
Visibility: 10 miles , 16 km
2017/08/21 13:36 KI69 211336Z AUTO 24003KT 10SM CLR 26/20 A3019 RMK AO2 T02630197
 
KLUK - Cincinnat/Lunken, Ohio, USA
Distance from station: SSW 33mi, 53km
Updated: Mon, Aug-21-2017 8:53am EDT
Clear
Clear
 Wind from SSW
Wind: SSW 5 mph , 7 km/h
Temperature: 75°F , 24°C
Dew Point: 73°F , 23°C
Humidity: 94%
Barometer: 30.16 inHg , 1021.3 hPa
Clouds: Clear
Visibility: 7 miles , 11 km
2017/08/21 12:53 KLUK 211253Z 21004KT 7SM CLR 24/23 A3016 RMK AO2 SLP207 T02390233
KCVG - Covington, Kentucky, USA
Distance from station: SSW 42mi, 67km
Updated: Mon, Aug-21-2017 8:52am EDT
Partly cloudy
Partly cloudy
 Wind from SSW
Wind: SSW 6 mph , 9 km/h
Temperature: 75°F , 24°C
Dew Point: 70°F , 21°C
Humidity: 83%
Barometer: 30.16 inHg , 1021.3 hPa
Clouds: Partly cloudy
Visibility: 9 miles , 14 km
Cloud details: Few Clouds 16000 ft
Partly cloudy 30000 ft
2017/08/21 12:52 KCVG 211252Z 20005KT 9SM FEW160 SCT300 24/21 A3016 RMK AO2 SLP203 T02440211
 
KVES - Versailles, Ohio, USA
Distance from station: NNW 47mi, 76km
Updated: Mon, Aug-21-2017 9:35am EDT
Clear
Clear
 Wind from calm
Wind: Calm
Temperature: 75°F , 24°C
Dew Point: 72°F , 22°C
Humidity: 89%
Barometer: 30.15 inHg , 1021 hPa
Clouds: Clear
Visibility: 7 miles , 11 km
2017/08/21 13:35 KVES 211335Z AUTO 00000KT 7SM CLR 24/22 A3015 RMK AO2